createdAt,value
2019-02-25T00:01:45.786Z,13.83
2019-02-25T00:04:13.516Z,16.27
2019-02-25T00:06:41.312Z,14.90
2019-02-25T00:09:08.684Z,18.83
2019-02-25T00:11:36.733Z,12.07
2019-02-25T00:14:04.126Z,13.20
2019-02-25T00:16:31.977Z,11.55
2019-02-25T00:19:00.146Z,13.15
2019-02-25T00:21:27.933Z,9.98
2019-02-25T00:23:55.407Z,13.15
2019-02-25T00:26:23.083Z,11.18
2019-02-25T00:28:50.907Z,10.18
2019-02-25T00:31:18.252Z,9.33
2019-02-25T00:33:46.225Z,7.65
2019-02-25T00:36:13.709Z,7.97
2019-02-25T00:38:41.311Z,9.20
2019-02-25T00:41:08.827Z,6.87
2019-02-25T00:43:36.862Z,8.90
2019-02-25T00:46:04.231Z,9.48
2019-02-25T00:48:31.893Z,7.92
2019-02-25T00:50:59.647Z,10.23
2019-02-25T00:53:27.388Z,10.60
2019-02-25T00:55:55.041Z,10.32
2019-02-25T00:58:22.415Z,10.48
2019-02-25T01:00:50.182Z,12.43
2019-02-25T01:03:17.592Z,9.40
2019-02-25T01:05:45.252Z,8.20
2019-02-25T01:08:12.715Z,8.05
2019-02-25T01:10:40.323Z,7.58
2019-02-25T01:13:08.536Z,6.67
2019-02-25T01:15:35.901Z,12.60
2019-02-25T01:18:03.502Z,11.97
2019-02-25T01:20:31.180Z,12.60
2019-02-25T01:22:58.531Z,12.05
2019-02-25T01:25:26.031Z,16.25
2019-02-25T01:27:53.678Z,14.45
2019-02-25T01:30:21.433Z,19.35
2019-02-25T01:32:49.289Z,13.98
2019-02-25T01:35:16.740Z,13.35
2019-02-25T01:37:44.235Z,10.50
2019-02-25T01:40:11.622Z,15.03
2019-02-25T01:42:39.474Z,12.98
2019-02-25T01:45:08.551Z,10.65
2019-02-25T01:47:36.025Z,16.57
2019-02-25T01:50:04.310Z,13.10
2019-02-25T01:52:31.654Z,9.68
2019-02-25T01:54:59.024Z,13.62
2019-02-25T01:57:26.340Z,13.98
2019-02-25T01:59:53.724Z,10.50
2019-02-25T02:02:21.176Z,8.15
2019-02-25T02:04:48.671Z,9.60
2019-02-25T02:07:16.030Z,7.42
2019-02-25T02:09:43.564Z,7.15
2019-02-25T02:12:12.766Z,6.33
2019-02-25T02:14:40.457Z,6.10
2019-02-25T02:17:07.905Z,6.62
2019-02-25T02:19:35.519Z,6.03
2019-02-25T02:22:03.003Z,5.72
2019-02-25T02:24:30.597Z,7.62
2019-02-25T02:27:10.896Z,8.60
2019-02-25T02:29:38.694Z,6.30
2019-02-25T02:32:06.157Z,7.00
2019-02-25T02:34:33.668Z,8.75
2019-02-25T02:37:01.374Z,8.08
2019-02-25T02:39:28.946Z,8.85
2019-02-25T02:42:18.946Z,8.18
2019-02-25T02:44:51.888Z,8.50
2019-02-25T02:47:46.419Z,9.15
2019-02-25T02:50:17.563Z,7.42
2019-02-25T02:52:45.727Z,6.53
2019-02-25T02:55:13.109Z,7.17
2019-02-25T02:57:41.065Z,6.37
2019-02-25T03:00:12.668Z,5.03
2019-02-25T03:02:40.123Z,5.95
2019-02-25T03:05:09.678Z,8.53
2019-02-25T03:07:37.459Z,5.45
2019-02-25T03:10:05.972Z,9.23
2019-02-25T03:12:33.781Z,8.43
2019-02-25T03:15:01.585Z,6.30
2019-02-25T03:17:30.426Z,5.60
2019-02-25T03:19:57.807Z,6.55
2019-02-25T03:22:25.829Z,7.60
2019-02-25T03:24:53.392Z,5.05
2019-02-25T03:27:20.911Z,7.00
2019-02-25T03:29:48.524Z,9.58
2019-02-25T03:32:16.384Z,6.35
2019-02-25T03:34:44.176Z,7.85
2019-02-25T03:37:11.698Z,6.05
2019-02-25T03:39:39.509Z,7.25
2019-02-25T03:42:07.397Z,5.17
2019-02-25T03:44:47.819Z,7.55
2019-02-25T03:47:15.710Z,9.23
2019-02-25T03:49:43.480Z,7.30
2019-02-25T03:52:10.875Z,7.22
2019-02-25T03:54:39.663Z,6.28
2019-02-25T03:57:07.387Z,7.67
2019-02-25T03:59:35.020Z,7.72
2019-02-25T04:02:02.754Z,7.87
2019-02-25T04:04:30.216Z,7.60
2019-02-25T04:06:57.728Z,11.80
2019-02-25T04:09:25.067Z,6.97
2019-02-25T04:11:52.577Z,10.38
2019-02-25T04:14:20.347Z,6.42
2019-02-25T04:16:47.749Z,6.50
2019-02-25T04:19:15.612Z,6.92
2019-02-25T04:21:42.990Z,9.08
2019-02-25T04:24:10.823Z,6.95
2019-02-25T04:26:38.490Z,10.43
2019-02-25T04:29:06.249Z,7.80
2019-02-25T04:31:33.706Z,8.55
2019-02-25T04:34:01.195Z,6.55
2019-02-25T04:36:28.982Z,7.78
2019-02-25T04:38:56.316Z,6.22
2019-02-25T04:41:23.784Z,6.47
2019-02-25T04:43:51.239Z,6.58
2019-02-25T04:46:18.619Z,7.12
2019-02-25T04:48:46.316Z,6.58
2019-02-25T04:51:14.093Z,8.30
2019-02-25T04:53:41.658Z,9.45
2019-02-25T04:56:09.159Z,10.88
2019-02-25T04:58:36.893Z,10.13
2019-02-25T05:01:04.528Z,11.90
2019-02-25T05:03:32.232Z,8.95
2019-02-25T05:05:59.741Z,10.32
2019-02-25T05:08:27.176Z,6.30
2019-02-25T05:10:55.156Z,6.50
2019-02-25T05:13:22.819Z,6.80
2019-02-25T05:15:50.590Z,8.15
2019-02-25T05:18:18.306Z,5.12
2019-02-25T05:20:46.130Z,5.95
2019-02-25T05:23:14.189Z,6.65
2019-02-25T05:25:41.731Z,6.92
2019-02-25T05:28:09.198Z,6.60
2019-02-25T05:30:36.711Z,8.75
2019-02-25T05:33:04.160Z,6.97
2019-02-25T05:35:32.082Z,10.25
2019-02-25T05:37:59.855Z,7.17
2019-02-25T05:40:27.679Z,8.10
2019-02-25T05:42:55.601Z,7.25
2019-02-25T05:45:23.506Z,7.87
2019-02-25T05:47:51.358Z,10.68
2019-02-25T05:50:18.879Z,11.63
2019-02-25T05:52:46.642Z,8.45
2019-02-25T05:55:14.124Z,7.95
2019-02-25T05:57:41.475Z,6.72
2019-02-25T06:00:12.616Z,7.72
2019-02-25T06:02:40.262Z,8.98
2019-02-25T06:05:07.921Z,7.85
2019-02-25T06:07:35.311Z,7.35
2019-02-25T06:10:03.310Z,7.05
2019-02-25T06:12:30.824Z,6.25
2019-02-25T06:14:58.650Z,9.95
2019-02-25T06:17:26.147Z,6.30
2019-02-25T06:19:53.480Z,6.33
2019-02-25T06:22:20.969Z,6.28
2019-02-25T06:24:48.356Z,6.28
2019-02-25T06:27:15.936Z,7.28
2019-02-25T06:29:44.020Z,9.65
2019-02-25T06:32:11.428Z,10.80
2019-02-25T06:34:39.315Z,13.72
2019-02-25T06:37:07.132Z,17.60
2019-02-25T06:39:34.491Z,24.98
2019-02-25T06:42:01.921Z,20.75
2019-02-25T06:44:29.388Z,25.88
2019-02-25T06:46:56.726Z,20.95
2019-02-25T06:49:24.083Z,28.83
2019-02-25T06:51:51.466Z,31.12
2019-02-25T06:54:18.944Z,45.63
2019-02-25T06:56:46.267Z,57.23
2019-02-25T06:59:13.614Z,51.80
2019-02-25T07:01:41.079Z,44.15
2019-02-25T07:04:23.420Z,45.45
2019-02-25T07:07:10.427Z,44.15
2019-02-25T07:10:10.031Z,65.37
2019-02-25T07:13:15.548Z,62.17
2019-02-25T07:15:54.798Z,46.05
2019-02-25T07:18:40.562Z,40.20
2019-02-25T07:21:14.786Z,24.72
2019-02-25T07:23:51.409Z,26.40
2019-02-25T07:26:28.494Z,18.50
2019-02-25T07:29:27.403Z,27.40
2019-02-25T07:32:02.845Z,15.50
2019-02-25T07:34:37.401Z,19.90
2019-02-25T07:37:22.913Z,21.33
2019-02-25T07:40:21.681Z,20.35
2019-02-25T07:43:00.535Z,16.40
2019-02-25T07:45:53.751Z,15.18
2019-02-25T07:48:39.321Z,14.23
2019-02-25T07:51:26.954Z,11.30
2019-02-25T07:54:19.731Z,26.80
2019-02-25T07:56:57.872Z,21.75
2019-02-25T07:59:50.596Z,12.23
2019-02-25T08:02:36.505Z,12.88
2019-02-25T08:05:33.188Z,17.35
2019-02-25T08:08:10.390Z,27.17
2019-02-25T08:10:51.155Z,13.72
2019-02-25T08:13:30.868Z,22.32
2019-02-25T08:16:14.593Z,20.97
2019-02-25T08:18:53.973Z,15.23
2019-02-25T08:21:36.210Z,9.28
2019-02-25T08:24:13.458Z,15.13
2019-02-25T08:26:52.184Z,11.33
2019-02-25T08:29:40.129Z,10.58
2019-02-25T08:32:25.663Z,9.58
2019-02-25T08:35:11.837Z,8.85
2019-02-25T08:38:14.667Z,9.30
2019-02-25T08:41:00.454Z,7.40
2019-02-25T08:43:35.882Z,8.08
2019-02-25T08:46:26.647Z,14.78
2019-02-25T08:49:03.447Z,11.35
2019-02-25T08:51:30.827Z,10.40
2019-02-25T08:53:59.482Z,8.10
2019-02-25T08:56:26.783Z,9.98
2019-02-25T08:58:54.318Z,10.70
2019-02-25T09:01:22.209Z,9.63
2019-02-25T09:03:50.569Z,6.70
2019-02-25T09:06:17.999Z,12.13
2019-02-25T09:08:45.557Z,11.53
2019-02-25T09:11:14.366Z,8.08
2019-02-25T09:13:41.937Z,9.63
2019-02-25T09:16:09.431Z,9.00
2019-02-25T09:18:36.889Z,9.50
2019-02-25T09:21:04.349Z,8.55
2019-02-25T09:23:31.681Z,8.48
2019-02-25T09:25:59.039Z,12.63
2019-02-25T09:28:26.883Z,11.05
2019-02-25T09:30:54.678Z,15.10
2019-02-25T09:33:22.239Z,10.70
2019-02-25T09:35:50.038Z,13.90
2019-02-25T09:38:17.656Z,15.45
2019-02-25T09:40:45.323Z,10.82
2019-02-25T09:43:12.756Z,12.10
2019-02-25T09:45:40.531Z,9.75
2019-02-25T09:48:08.296Z,10.35
2019-02-25T09:50:35.748Z,13.98
2019-02-25T09:53:03.649Z,12.25
2019-02-25T09:55:31.116Z,16.00
2019-02-25T09:57:58.879Z,10.68
2019-02-25T10:00:26.603Z,10.00
2019-02-25T10:02:54.118Z,14.17
2019-02-25T10:05:21.550Z,10.57
2019-02-25T10:07:50.308Z,11.30
2019-02-25T10:10:17.675Z,9.17
2019-02-25T10:12:45.264Z,13.93
2019-02-25T10:15:13.679Z,14.43
2019-02-25T10:17:41.091Z,8.90
2019-02-25T10:20:08.595Z,14.20
2019-02-25T10:22:36.003Z,12.10
2019-02-25T10:25:03.561Z,8.23
2019-02-25T10:27:31.162Z,12.98
2019-02-25T10:29:58.543Z,13.17
2019-02-25T10:32:28.006Z,10.37
2019-02-25T10:34:55.537Z,13.07
2019-02-25T10:37:23.182Z,12.23
2019-02-25T10:39:51.498Z,11.83
2019-02-25T10:42:19.419Z,7.70
2019-02-25T10:44:47.591Z,11.80
2019-02-25T10:47:17.299Z,12.47
2019-02-25T10:49:44.590Z,15.73
2019-02-25T10:52:12.889Z,9.00
2019-02-25T10:54:41.528Z,10.43
2019-02-25T10:57:13.058Z,17.30
2019-02-25T10:59:41.489Z,15.03
2019-02-25T11:02:11.101Z,11.63
2019-02-25T11:04:39.198Z,8.03
2019-02-25T11:07:07.859Z,8.00
2019-02-25T11:09:50.394Z,9.80
2019-02-25T11:12:18.283Z,11.77
2019-02-25T11:14:46.180Z,19.17
2019-02-25T11:17:14.024Z,17.43
2019-02-25T11:19:42.948Z,11.90
2019-02-25T11:22:12.165Z,14.70
2019-02-25T11:24:40.342Z,11.80
2019-02-25T11:27:08.537Z,17.10
2019-02-25T11:29:37.871Z,9.33
2019-02-25T11:32:05.390Z,13.53
2019-02-25T11:34:33.612Z,11.00
2019-02-25T11:37:02.006Z,11.60
2019-02-25T11:39:30.146Z,10.03
2019-02-25T11:41:59.865Z,9.57
2019-02-25T11:44:31.219Z,9.00
2019-02-25T11:46:56.754Z,9.33
2019-02-25T11:49:24.118Z,7.03
2019-02-25T11:51:51.592Z,9.13
2019-02-25T11:54:19.497Z,10.47
2019-02-25T11:56:46.961Z,8.90
2019-02-25T11:59:14.421Z,17.60
2019-02-25T12:01:42.031Z,9.20
2019-02-25T12:04:09.392Z,6.03
2019-02-25T12:06:36.735Z,8.77
2019-02-25T12:09:04.940Z,6.00
2019-02-25T12:11:33.322Z,7.17
2019-02-25T12:14:00.988Z,9.83
2019-02-25T12:16:28.343Z,8.03
2019-02-25T12:18:55.850Z,10.13
2019-02-25T12:21:23.381Z,14.70
2019-02-25T12:23:50.854Z,9.80
2019-02-25T12:26:18.850Z,8.40
2019-02-25T12:28:46.301Z,12.93
2019-02-25T12:31:14.147Z,6.87
2019-02-25T12:33:42.981Z,13.40
2019-02-25T12:36:10.966Z,6.10
2019-02-25T12:38:38.801Z,9.80
2019-02-25T12:41:06.188Z,8.63
2019-02-25T12:43:33.845Z,14.43
2019-02-25T12:46:01.389Z,7.50
2019-02-25T12:48:29.142Z,11.30
2019-02-25T12:50:57.143Z,8.77
2019-02-25T12:53:24.481Z,7.07
2019-02-25T12:55:52.300Z,11.37
2019-02-25T12:58:20.463Z,8.37
2019-02-25T13:00:48.857Z,10.13
2019-02-25T13:03:16.680Z,7.93
2019-02-25T13:05:44.042Z,11.07
2019-02-25T13:08:11.796Z,8.07
2019-02-25T13:10:39.400Z,6.17
2019-02-25T13:13:07.129Z,9.37
2019-02-25T13:15:34.854Z,7.37
2019-02-25T13:18:02.302Z,12.17
2019-02-25T13:20:30.170Z,11.17
2019-02-25T13:22:57.511Z,14.60
2019-02-25T13:25:25.135Z,10.00
2019-02-25T13:27:54.385Z,10.20
2019-02-25T13:30:22.261Z,6.07
2019-02-25T13:32:49.763Z,13.53
2019-02-25T13:35:17.362Z,8.93
2019-02-25T13:37:44.874Z,7.37
2019-02-25T13:40:12.555Z,5.37
2019-02-25T13:42:40.097Z,14.20
2019-02-25T13:45:09.570Z,13.00
2019-02-25T13:47:37.425Z,7.60
2019-02-25T13:50:05.219Z,8.10
2019-02-25T13:52:32.795Z,11.67
2019-02-25T13:55:00.412Z,7.20
2019-02-25T13:57:27.885Z,18.60
2019-02-25T13:59:56.175Z,7.30
2019-02-25T14:02:23.621Z,14.00
2019-02-25T14:04:51.201Z,11.87
2019-02-25T14:07:19.280Z,7.50
2019-02-25T14:09:46.614Z,7.87
2019-02-25T14:12:15.169Z,9.00
2019-02-25T14:14:42.932Z,8.40
2019-02-25T14:17:10.725Z,9.67
2019-02-25T14:19:38.570Z,9.23
2019-02-25T14:25:14.676Z,6.77
2019-02-25T14:27:42.643Z,9.93
2019-02-25T14:30:13.637Z,5.67
2019-02-25T14:32:41.586Z,12.83
2019-02-25T14:35:09.283Z,21.70
2019-02-25T14:37:37.008Z,10.37
2019-02-25T14:40:06.047Z,11.53
2019-02-25T14:42:36.356Z,7.20
2019-02-25T14:45:07.193Z,7.23
2019-02-25T14:47:39.056Z,10.37
2019-02-25T14:50:06.762Z,5.93
2019-02-25T14:52:35.037Z,9.23
2019-02-25T14:55:04.802Z,10.30
2019-02-25T14:57:33.357Z,7.07
2019-02-25T15:00:02.840Z,5.90
2019-02-25T15:02:32.758Z,11.10
2019-02-25T15:05:00.502Z,13.67
2019-02-25T15:07:28.442Z,14.33
2019-02-25T15:09:57.968Z,8.63
2019-02-25T15:12:29.076Z,6.93
2019-02-25T15:14:58.044Z,11.37
2019-02-25T15:17:26.806Z,7.03
2019-02-25T15:19:54.723Z,8.03
2019-02-25T15:22:22.470Z,13.40
2019-02-25T15:24:52.416Z,6.50
2019-02-25T15:27:19.850Z,14.63
2019-02-25T15:29:48.955Z,6.23
2019-02-25T15:32:18.180Z,15.43
2019-02-25T15:34:46.932Z,5.97
2019-02-25T15:37:15.744Z,7.67
2019-02-25T15:39:45.041Z,5.70
2019-02-25T15:42:14.933Z,2.83
2019-02-25T15:44:44.550Z,7.33
2019-02-25T15:47:13.291Z,12.73
2019-02-25T15:49:42.361Z,7.03
2019-02-25T15:52:10.739Z,5.90
2019-02-25T15:54:39.350Z,4.97
2019-02-25T15:57:08.807Z,5.90
2019-02-25T15:59:36.721Z,9.10
2019-02-25T16:02:05.631Z,10.67
2019-02-25T16:04:36.027Z,4.00
2019-02-25T16:07:06.619Z,8.70
2019-02-25T16:09:34.715Z,5.50
2019-02-25T16:12:03.757Z,10.93
2019-02-25T16:14:32.692Z,4.20
2019-02-25T16:17:00.267Z,11.90
2019-02-25T16:19:38.811Z,8.20
2019-02-25T16:21:58.508Z,5.23
2019-02-25T16:24:26.797Z,9.03
2019-02-25T16:26:56.085Z,4.90
2019-02-25T16:29:24.248Z,4.80
2019-02-25T16:31:53.504Z,3.30
2019-02-25T16:34:24.381Z,5.43
2019-02-25T16:36:53.776Z,3.20
2019-02-25T16:39:22.041Z,3.60
2019-02-25T16:41:49.681Z,7.27
2019-02-25T16:44:17.775Z,4.50
2019-02-25T16:46:46.740Z,3.13
2019-02-25T16:49:16.380Z,6.37
2019-02-25T16:51:44.094Z,9.17
2019-02-25T16:54:13.567Z,11.13
2019-02-25T16:56:41.261Z,6.57
2019-02-25T16:59:11.125Z,13.03
2019-02-25T17:01:39.783Z,10.43
2019-02-25T17:04:11.716Z,9.83
2019-02-25T17:06:38.248Z,4.40
2019-02-25T17:09:06.558Z,13.00
2019-02-25T17:11:37.932Z,6.77
2019-02-25T17:14:05.379Z,5.73
2019-02-25T17:16:32.898Z,5.87
2019-02-25T17:19:01.345Z,10.87
2019-02-25T17:21:29.245Z,8.27
2019-02-25T17:23:58.171Z,6.20
2019-02-25T17:26:27.549Z,8.10
2019-02-25T17:28:54.978Z,9.83
2019-02-25T17:31:22.449Z,9.07
2019-02-25T17:33:51.470Z,10.68
2019-02-25T17:36:19.831Z,11.40
2019-02-25T17:38:50.185Z,8.83
2019-02-25T17:41:18.351Z,14.50
2019-02-25T17:43:46.321Z,16.23
2019-02-25T17:46:14.541Z,10.20
2019-02-25T17:48:42.797Z,19.37
2019-02-25T17:51:10.223Z,23.40
2019-02-25T17:53:38.108Z,16.60
2019-02-25T17:56:06.515Z,16.97
2019-02-25T17:58:36.014Z,26.90
2019-02-25T18:01:05.740Z,19.70
2019-02-25T18:03:33.558Z,25.83
2019-02-25T18:06:02.981Z,27.00
2019-02-25T18:08:32.193Z,23.90
2019-02-25T18:11:00.659Z,32.40
2019-02-25T18:13:28.904Z,24.93
2019-02-25T18:15:58.315Z,17.63
2019-02-25T18:18:25.885Z,11.60
2019-02-25T18:20:53.713Z,16.50
2019-02-25T18:23:21.835Z,8.70
2019-02-25T18:25:50.704Z,6.93
2019-02-25T18:28:19.675Z,10.93
2019-02-25T18:30:47.816Z,11.50
2019-02-25T18:33:17.255Z,11.73
2019-02-25T18:35:45.740Z,10.20
2019-02-25T18:38:13.532Z,7.23
2019-02-25T18:40:45.654Z,15.30
2019-02-25T18:43:11.524Z,15.20
2019-02-25T18:45:41.053Z,20.83
2019-02-25T18:48:08.237Z,26.13
2019-02-25T18:50:39.138Z,47.93
2019-02-25T18:53:06.697Z,33.23
2019-02-25T18:55:34.541Z,27.60
2019-02-25T18:58:04.786Z,18.20
2019-02-25T19:00:34.796Z,5.73
2019-02-25T19:03:04.641Z,4.97
2019-02-25T19:05:32.963Z,11.83
2019-02-25T19:08:01.756Z,4.20
2019-02-25T19:10:29.346Z,7.00
2019-02-25T19:12:58.744Z,6.30
2019-02-25T19:15:26.705Z,2.90
2019-02-25T19:17:54.451Z,5.77
2019-02-25T19:20:22.069Z,3.93
2019-02-25T19:22:49.727Z,12.23
2019-02-25T19:25:18.244Z,6.10
2019-02-25T19:27:47.895Z,4.80
2019-02-25T19:30:19.447Z,17.60
2019-02-25T19:32:46.109Z,18.70
2019-02-25T19:35:15.336Z,23.07
2019-02-25T19:37:44.433Z,15.53
2019-02-25T19:40:15.005Z,16.90
2019-02-25T19:42:47.361Z,17.23
2019-02-25T19:45:13.381Z,10.90
2019-02-25T19:47:43.283Z,15.67
2019-02-25T19:50:11.807Z,14.87
2019-02-25T19:52:40.061Z,17.53
2019-02-25T19:55:10.523Z,16.97
2019-02-25T19:57:39.643Z,9.97
2019-02-25T20:00:14.902Z,9.30
2019-02-25T20:02:43.165Z,10.40
2019-02-25T20:05:11.995Z,6.30
2019-02-25T20:07:40.368Z,8.73
2019-02-25T20:10:08.771Z,10.20
2019-02-25T20:12:36.760Z,14.87
2019-02-25T20:15:09.023Z,13.83
2019-02-25T20:17:36.160Z,9.90
2019-02-25T20:20:04.841Z,11.30
2019-02-25T20:22:34.547Z,6.40
2019-02-25T20:25:03.812Z,4.70
2019-02-25T20:27:32.376Z,3.80
2019-02-25T20:30:00.189Z,5.43
2019-02-25T20:32:29.204Z,4.90
2019-02-25T20:34:58.429Z,8.17
2019-02-25T20:37:27.340Z,6.73
2019-02-25T20:39:56.019Z,6.57
2019-02-25T20:42:25.819Z,6.87
2019-02-25T20:44:55.287Z,8.23
2019-02-25T20:47:23.229Z,6.97
2019-02-25T20:49:53.694Z,7.57
2019-02-25T20:52:22.152Z,8.73
2019-02-25T20:54:49.674Z,9.83
2019-02-25T20:57:18.616Z,23.27
2019-02-25T20:59:48.404Z,19.93
2019-02-25T21:02:16.273Z,18.97
2019-02-25T21:04:46.067Z,15.97
2019-02-25T21:07:14.817Z,18.93
2019-02-25T21:09:42.478Z,26.37
2019-02-25T21:12:12.684Z,27.73
2019-02-25T21:14:42.726Z,22.27
2019-02-25T21:17:10.243Z,23.63
2019-02-25T21:19:39.533Z,21.50
2019-02-25T21:22:08.837Z,35.70
2019-02-25T21:24:37.548Z,23.00
2019-02-25T21:27:06.420Z,32.83
2019-02-25T21:29:36.538Z,28.50
2019-02-25T21:32:04.123Z,28.50
2019-02-25T21:34:32.936Z,24.70
2019-02-25T21:37:01.289Z,18.80
2019-02-25T21:39:29.823Z,23.13
2019-02-25T21:41:59.486Z,20.10
2019-02-25T21:44:28.942Z,21.23
2019-02-25T21:46:58.417Z,28.73
2019-02-25T21:49:27.225Z,22.13
2019-02-25T21:51:56.703Z,15.43
2019-02-25T21:54:24.273Z,18.60
2019-02-25T21:56:51.670Z,22.20
2019-02-25T21:59:21.231Z,16.30
2019-02-25T22:01:48.637Z,18.20
2019-02-25T22:04:17.995Z,9.47
2019-02-25T22:06:49.009Z,31.73
2019-02-25T22:09:19.202Z,39.30
2019-02-25T22:11:45.656Z,23.53
2019-02-25T22:14:15.880Z,19.30
2019-02-25T22:16:44.324Z,18.57
2019-02-25T22:19:14.179Z,20.13
2019-02-25T22:21:41.692Z,26.13
2019-02-25T22:24:09.729Z,26.67
2019-02-25T22:26:37.706Z,19.40
2019-02-25T22:29:05.078Z,33.60
2019-02-25T22:31:35.387Z,20.10
2019-02-25T22:34:02.494Z,14.30
2019-02-25T22:36:30.955Z,14.87
2019-02-25T22:38:59.073Z,16.33
2019-02-25T22:41:27.696Z,14.23
2019-02-25T22:43:55.081Z,14.03
2019-02-25T22:46:23.535Z,10.37
2019-02-25T22:48:51.710Z,8.80
2019-02-25T22:51:22.231Z,10.10
2019-02-25T22:53:49.358Z,11.00
2019-02-25T22:56:18.352Z,12.70
2019-02-25T22:58:46.406Z,12.20
2019-02-25T23:01:17.569Z,15.50
2019-02-25T23:03:45.590Z,12.33
2019-02-25T23:06:15.637Z,13.00
2019-02-25T23:08:44.261Z,20.90
2019-02-25T23:11:14.387Z,13.00
2019-02-25T23:13:43.207Z,16.63
2019-02-25T23:16:13.217Z,12.47
2019-02-25T23:18:41.099Z,14.70
2019-02-25T23:21:08.574Z,17.80
2019-02-25T23:23:37.756Z,13.73
2019-02-25T23:26:05.730Z,15.50
2019-02-25T23:28:33.475Z,13.07
2019-02-25T23:31:01.303Z,13.13
2019-02-25T23:33:29.762Z,11.73
2019-02-25T23:35:57.229Z,10.30
2019-02-25T23:38:24.893Z,10.40
2019-02-25T23:40:52.500Z,8.83
2019-02-25T23:43:19.950Z,11.30
2019-02-25T23:45:47.308Z,11.00
2019-02-25T23:48:15.313Z,18.20
2019-02-25T23:50:43.156Z,17.30
2019-02-25T23:53:10.782Z,18.13
2019-02-25T23:55:38.099Z,13.37
2019-02-25T23:58:10.296Z,17.53
